Portada
METAR-TAF:

METAR-TAF

Aeropuertos :

Aeropuerto Internacional de Bamako-Modibo Keïta

Bamako, Malí

latitud: 12-32N, longitud: 007-57W, altitud: 380 m

Observación

El informe se hizo hace 48 minutos, a las 17:00 UTC
Viento 6 kt del noreste, variando entre norte-noreste y este
Temperatura 32°C
Humedad 15%
Presión 1012 hPa
Visibilidad 10 km o más
sin nubes por debajo de 1500 m y sin presencia de cumulonimbus.

METAR: GABS 111700Z 05006KT 030V090 CAVOK 32/02 Q1012 NOSIG

Hora: 17:48 (17:48 UTC)

Pronóstico

El informe se hizo hace 23 minutos, a las 17:25 UTC
Pronóstico válido del 11 a las 18 UTC al 12 a las 24 UTC
Viento 10 kt del noreste
Visibilidad 10 km o más
sin nubes por debajo de 1500 m y sin presencia de cumulonimbus.

TAF: GABS 111725Z 1118/1224 04010KT CAVOK

Observaciones y pronósticos meteorológicos de más de 4000 aeropuertos (mensajes METAR y TAF).

Los puntos amarillos y rojos representan las estaciones disponibles.

Ponga el ratón en el punto deseado para ver el nombre de la estación.

Haga clic para ver las observaciones y los pronósticos meteorológicos.

Para cambiar el mapa : haga clic en los botones verdes con una cruz de color negro para hacer un zoom, en el botón verde con un guión para alejar o en las flechas verdes para mapas adyacentes.


METAR-TAF: